Time;durP1;ratioP1;P1;durP2;ratioP2;P2;SDS_P1;SDS_P2;PMS_P1;PMS_P2;Temp;Humidity;BMP_temperature;BMP_pressure;BME280_temperature;BME280_humidity;BME280_pressure;Samples;Min_cycle;Max_cycle;Signal;HPM_P1;HPM_P2
2024/01/27 00:00:50;;;;;;;;;;;1.60;99.90;;;;;;5038803;28;19932;-59
2024/01/27 00:03:17;;;;;;;;;;;1.60;99.90;;;;;;5038158;28;19925;-62
2024/01/27 00:05:44;;;;;;;;;;;1.60;99.90;;;;;;5032502;28;20019;-60
2024/01/27 00:08:11;;;;;;;;;;;1.60;99.90;;;;;;5031033;28;19933;-64
2024/01/27 00:10:38;;;;;;;;;;;1.60;99.90;;;;;;5033550;28;19929;-61
2024/01/27 00:13:05;;;;;;;;;;;1.60;99.90;;;;;;5032912;28;19925;-59
2024/01/27 00:15:32;;;;;;;;;;;1.60;99.90;;;;;;5033143;28;19929;-60
2024/01/27 00:17:58;;;;;;;;;;;1.60;99.90;;;;;;5032758;28;19955;-61
2024/01/27 00:20:26;;;;;;;;;;;1.60;99.90;;;;;;5031593;28;19925;-62
2024/01/27 00:22:53;;;;;;;;;;;1.60;99.90;;;;;;5037595;28;19957;-60
2024/01/27 00:25:19;;;;;;;;;;;1.60;99.90;;;;;;5032500;28;19929;-62
2024/01/27 00:27:46;;;;;;;;;;;1.60;99.90;;;;;;5035156;28;19952;-62
2024/01/27 00:30:13;;;;;;;;;;;1.70;99.90;;;;;;5033239;28;19929;-67
2024/01/27 00:32:40;;;;;;;;;;;1.70;99.90;;;;;;5037150;28;19931;-62
2024/01/27 00:35:07;;;;;;;;;;;1.70;99.90;;;;;;5032894;28;19929;-61
2024/01/27 00:37:34;;;;;;;;;;;1.70;99.90;;;;;;5037078;28;19929;-60
2024/01/27 00:40:01;;;;;;;;;;;1.70;99.90;;;;;;5028391;28;19933;-63
2024/01/27 00:42:28;;;;;;;;;;;1.70;99.90;;;;;;5035272;28;19929;-61
2024/01/27 00:44:55;;;;;;;;;;;1.70;99.90;;;;;;5032035;28;19929;-60
2024/01/27 00:47:22;;;;;;;;;;;1.70;99.90;;;;;;5028180;28;19925;-62
2024/01/27 00:49:49;;;;;;;;;;;1.70;99.90;;;;;;5030087;28;19924;-64
2024/01/27 00:52:16;;;;;;;;;;;1.70;99.90;;;;;;5036155;28;19924;-60
2024/01/27 00:54:43;;;;;;;;;;;1.70;99.90;;;;;;5030135;28;19929;-62
2024/01/27 00:57:10;;;;;;;;;;;1.70;99.90;;;;;;5033228;28;19929;-67
2024/01/27 00:59:37;;;;;;;;;;;1.70;99.90;;;;;;5032452;28;19929;-61
2024/01/27 01:02:04;;;;;;;;;;;1.70;99.90;;;;;;5031759;28;20383;-61
2024/01/27 01:04:31;;;;;;;;;;;1.70;99.90;;;;;;5029181;28;19933;-66
2024/01/27 01:06:58;;;;;;;;;;;1.80;99.90;;;;;;5035490;28;20028;-60
2024/01/27 01:09:25;;;;;;;;;;;1.80;99.90;;;;;;5033537;28;19979;-68
2024/01/27 01:11:52;;;;;;;;;;;1.80;99.90;;;;;;5035541;28;20640;-61
2024/01/27 01:14:18;;;;;;;;;;;1.80;99.90;;;;;;5032637;28;19933;-59
2024/01/27 01:16:45;;;;;;;;;;;1.80;99.90;;;;;;5036742;28;19960;-61
2024/01/27 01:19:12;;;;;;;;;;;1.80;99.90;;;;;;5030925;28;20016;-64
2024/01/27 01:21:39;;;;;;;;;;;1.80;99.90;;;;;;5032798;28;19935;-61
2024/01/27 01:24:05;;;;;;;;;;;1.80;99.90;;;;;;5031167;28;19932;-61
2024/01/27 01:26:33;;;;;;;;;;;1.80;99.90;;;;;;5027253;28;19943;-61
2024/01/27 01:29:00;;;;;;;;;;;1.80;99.90;;;;;;5028612;28;19933;-66
2024/01/27 01:31:26;;;;;;;;;;;1.80;99.90;;;;;;5032629;28;20490;-60
2024/01/27 01:33:53;;;;;;;;;;;1.80;99.90;;;;;;5034329;28;20012;-61
2024/01/27 01:36:20;;;;;;;;;;;1.80;99.90;;;;;;5032715;28;20291;-60
2024/01/27 01:38:47;;;;;;;;;;;1.80;99.90;;;;;;5030614;28;20019;-62
2024/01/27 01:41:14;;;;;;;;;;;1.80;99.90;;;;;;5034390;28;19929;-63
2024/01/27 01:43:41;;;;;;;;;;;1.80;99.90;;;;;;5033789;28;20311;-65
2024/01/27 01:46:08;;;;;;;;;;;1.90;99.90;;;;;;5030452;28;19991;-66
2024/01/27 01:48:35;;;;;;;;;;;1.90;99.90;;;;;;5032319;28;19936;-65
2024/01/27 01:51:02;;;;;;;;;;;1.90;99.90;;;;;;5028920;28;19933;-67
2024/01/27 01:53:29;;;;;;;;;;;1.90;99.90;;;;;;5031174;28;19925;-61
2024/01/27 01:55:56;;;;;;;;;;;1.90;99.90;;;;;;5030949;28;19929;-68
2024/01/27 01:58:23;;;;;;;;;;;1.90;99.90;;;;;;5031207;28;20467;-63
2024/01/27 02:00:49;;;;;;;;;;;1.90;99.90;;;;;;5029442;28;20035;-61
2024/01/27 02:03:16;;;;;;;;;;;2.00;99.90;;;;;;5031332;28;19972;-61
2024/01/27 02:05:43;;;;;;;;;;;2.00;99.90;;;;;;5033022;28;19929;-64
2024/01/27 02:08:10;;;;;;;;;;;2.00;99.90;;;;;;5029695;28;19925;-63
2024/01/27 02:10:37;;;;;;;;;;;2.00;99.90;;;;;;5029354;28;19948;-60
2024/01/27 02:13:05;;;;;;;;;;;2.00;99.90;;;;;;5034358;28;19932;-64
2024/01/27 02:15:32;;;;;;;;;;;2.10;99.90;;;;;;5038427;28;20012;-67
2024/01/27 02:17:59;;;;;;;;;;;2.00;99.90;;;;;;5035754;28;19967;-59
2024/01/27 02:20:26;;;;;;;;;;;2.10;99.90;;;;;;5029101;28;19935;-64
2024/01/27 02:22:53;;;;;;;;;;;2.10;99.90;;;;;;5029103;28;19925;-65
2024/01/27 02:25:19;;;;;;;;;;;2.10;99.90;;;;;;5029413;28;20011;-61
2024/01/27 02:27:46;;;;;;;;;;;2.10;99.90;;;;;;5031502;28;20482;-59
2024/01/27 02:30:13;;;;;;;;;;;2.10;99.90;;;;;;5027333;28;20014;-71
2024/01/27 02:32:40;;;;;;;;;;;2.20;99.90;;;;;;5029639;28;20023;-62
2024/01/27 02:35:08;;;;;;;;;;;2.20;99.90;;;;;;5028707;28;19975;-64
2024/01/27 02:37:34;;;;;;;;;;;2.20;99.90;;;;;;5036012;28;19925;-66
2024/01/27 02:40:01;;;;;;;;;;;2.20;99.90;;;;;;5031790;28;20015;-62
2024/01/27 02:42:28;;;;;;;;;;;2.20;99.90;;;;;;5029287;28;19968;-60
2024/01/27 02:44:55;;;;;;;;;;;2.20;99.90;;;;;;5019104;28;19929;-63
2024/01/27 02:47:22;;;;;;;;;;;2.20;99.90;;;;;;5024305;28;19936;-61
2024/01/27 02:49:49;;;;;;;;;;;2.20;99.90;;;;;;5032048;28;19939;-60
2024/01/27 02:52:16;;;;;;;;;;;2.20;99.90;;;;;;5023305;28;19929;-64
2024/01/27 02:54:44;;;;;;;;;;;2.30;99.90;;;;;;5032338;28;19925;-62
2024/01/27 02:57:11;;;;;;;;;;;2.30;99.90;;;;;;5035371;28;19929;-66
2024/01/27 02:59:38;;;;;;;;;;;2.30;99.90;;;;;;5031953;28;19928;-69
2024/01/27 03:02:05;;;;;;;;;;;2.30;99.90;;;;;;5031455;28;19928;-63
2024/01/27 03:04:32;;;;;;;;;;;2.30;99.90;;;;;;5030027;28;19926;-59
2024/01/27 03:06:59;;;;;;;;;;;2.30;99.90;;;;;;5030171;28;19933;-63
2024/01/27 03:09:26;;;;;;;;;;;2.30;99.90;;;;;;5036355;28;19925;-62
2024/01/27 03:11:53;;;;;;;;;;;2.30;99.90;;;;;;5028888;28;19932;-61
2024/01/27 03:14:20;;;;;;;;;;;2.30;99.90;;;;;;5030031;28;19956;-62
2024/01/27 03:16:46;;;;;;;;;;;2.30;99.90;;;;;;5028205;28;19968;-64
2024/01/27 03:19:13;;;;;;;;;;;2.30;99.90;;;;;;5035145;28;19929;-60
2024/01/27 03:21:40;;;;;;;;;;;2.30;99.90;;;;;;5031228;28;19929;-63
2024/01/27 03:24:07;;;;;;;;;;;2.30;99.90;;;;;;5032232;28;19936;-62
2024/01/27 03:26:34;;;;;;;;;;;2.30;99.90;;;;;;5027598;28;20268;-61
2024/01/27 03:29:01;;;;;;;;;;;2.30;99.90;;;;;;5027067;28;19933;-61
2024/01/27 03:31:31;;;;;;;;;;;2.30;99.90;;;;;;5019954;28;20044;-64
2024/01/27 03:34:02;;;;;;;;;;;2.30;99.90;;;;;;5030374;28;19983;-62
2024/01/27 03:36:29;;;;;;;;;;;2.30;99.90;;;;;;5027861;28;19929;-64
2024/01/27 03:38:57;;;;;;;;;;;2.20;99.90;;;;;;5032601;28;19925;-64
2024/01/27 03:41:24;;;;;;;;;;;2.10;99.90;;;;;;5025543;28;20284;-60
2024/01/27 03:43:51;;;;;;;;;;;2.10;99.90;;;;;;5035787;28;20328;-63
2024/01/27 03:46:18;;;;;;;;;;;2.10;99.90;;;;;;5027860;28;19956;-63
2024/01/27 03:48:44;;;;;;;;;;;2.00;99.90;;;;;;5029448;28;19929;-61
2024/01/27 03:51:12;;;;;;;;;;;1.90;99.90;;;;;;5029921;28;20014;-63
2024/01/27 03:53:39;;;;;;;;;;;1.90;99.90;;;;;;5032622;28;19976;-65
2024/01/27 03:56:06;;;;;;;;;;;1.80;99.90;;;;;;5033822;28;19934;-63
2024/01/27 03:58:33;;;;;;;;;;;1.80;99.90;;;;;;5037417;28;19956;-61
2024/01/27 04:00:59;;;;;;;;;;;1.80;99.90;;;;;;5030689;28;20000;-59
2024/01/27 04:03:26;;;;;;;;;;;1.80;99.90;;;;;;5032814;28;20363;-60
2024/01/27 04:05:53;;;;;;;;;;;1.80;99.90;;;;;;5037577;28;19929;-59
2024/01/27 04:08:20;;;;;;;;;;;1.80;99.90;;;;;;5035405;28;19953;-59
2024/01/27 04:10:47;;;;;;;;;;;1.80;99.90;;;;;;5032806;28;20039;-67
2024/01/27 04:13:14;;;;;;;;;;;1.80;99.90;;;;;;5036055;28;19929;-64
2024/01/27 04:15:41;;;;;;;;;;;1.80;99.90;;;;;;5037112;28;20004;-59
2024/01/27 04:18:09;;;;;;;;;;;1.80;99.90;;;;;;5032159;28;20314;-68
2024/01/27 04:20:36;;;;;;;;;;;1.80;99.90;;;;;;5030693;28;21261;-62
2024/01/27 04:23:03;;;;;;;;;;;1.80;99.90;;;;;;5031362;28;19936;-62
2024/01/27 04:25:30;;;;;;;;;;;1.80;99.90;;;;;;5034286;28;19933;-59
2024/01/27 04:27:57;;;;;;;;;;;1.70;99.90;;;;;;5039024;28;19975;-68
2024/01/27 04:30:24;;;;;;;;;;;1.70;99.90;;;;;;5031612;28;19998;-62
2024/01/27 04:32:51;;;;;;;;;;;1.70;99.90;;;;;;5035951;28;19925;-60
2024/01/27 04:35:18;;;;;;;;;;;1.70;99.90;;;;;;5031884;28;19933;-68
2024/01/27 04:37:45;;;;;;;;;;;1.80;99.90;;;;;;5035722;28;19925;-62
2024/01/27 04:40:12;;;;;;;;;;;1.80;99.90;;;;;;5031966;28;19925;-72
2024/01/27 04:42:39;;;;;;;;;;;1.80;99.90;;;;;;5034993;28;19936;-66
2024/01/27 04:45:06;;;;;;;;;;;1.80;99.90;;;;;;5030677;28;19929;-61
2024/01/27 04:47:33;;;;;;;;;;;1.80;99.90;;;;;;5037669;28;20371;-59
2024/01/27 04:50:00;;;;;;;;;;;1.80;99.90;;;;;;5033831;28;19928;-60
2024/01/27 04:52:27;;;;;;;;;;;1.80;99.90;;;;;;5035721;28;19986;-60
2024/01/27 04:54:54;;;;;;;;;;;1.80;99.90;;;;;;5032344;28;19935;-61
2024/01/27 04:57:21;;;;;;;;;;;1.80;99.90;;;;;;5030956;28;20379;-62
2024/01/27 04:59:48;;;;;;;;;;;1.80;99.90;;;;;;5034100;28;19990;-61
2024/01/27 05:02:15;;;;;;;;;;;1.80;99.90;;;;;;5036805;28;19929;-60
2024/01/27 05:04:42;;;;;;;;;;;1.80;99.90;;;;;;5032967;28;19929;-66
2024/01/27 05:07:09;;;;;;;;;;;1.80;99.90;;;;;;5028381;28;19925;-60
2024/01/27 05:09:36;;;;;;;;;;;1.80;99.90;;;;;;5029564;28;19956;-62
2024/01/27 05:12:03;;;;;;;;;;;1.80;99.90;;;;;;5033195;28;19929;-62
2024/01/27 05:14:29;;;;;;;;;;;1.80;99.90;;;;;;5033557;28;19925;-62
2024/01/27 05:16:56;;;;;;;;;;;1.80;99.90;;;;;;5034065;28;19929;-62
2024/01/27 05:19:23;;;;;;;;;;;1.80;99.90;;;;;;5030601;28;19972;-59
2024/01/27 05:21:50;;;;;;;;;;;1.80;99.90;;;;;;5036140;28;19929;-61
2024/01/27 05:24:17;;;;;;;;;;;1.80;99.90;;;;;;5033419;28;19975;-63
2024/01/27 05:26:44;;;;;;;;;;;1.80;99.90;;;;;;5033124;28;19929;-65
2024/01/27 05:29:10;;;;;;;;;;;1.80;99.90;;;;;;5033109;28;19929;-64
2024/01/27 05:31:37;;;;;;;;;;;1.80;99.90;;;;;;5031893;28;19999;-60
2024/01/27 05:34:04;;;;;;;;;;;1.80;99.90;;;;;;5031768;28;19928;-59
2024/01/27 05:36:31;;;;;;;;;;;1.80;99.90;;;;;;5034260;28;19929;-63
2024/01/27 05:38:58;;;;;;;;;;;1.80;99.90;;;;;;5031858;28;19925;-61
2024/01/27 05:41:26;;;;;;;;;;;1.80;99.90;;;;;;5029087;28;19999;-60
2024/01/27 05:43:53;;;;;;;;;;;1.80;99.90;;;;;;5033934;28;19932;-68
2024/01/27 05:46:20;;;;;;;;;;;1.80;99.90;;;;;;5028402;28;19928;-62
2024/01/27 05:48:46;;;;;;;;;;;1.70;99.90;;;;;;5036126;28;19936;-66
2024/01/27 05:51:14;;;;;;;;;;;1.70;99.90;;;;;;5028061;28;19979;-64
2024/01/27 05:53:40;;;;;;;;;;;1.80;99.90;;;;;;5035253;28;19929;-63
2024/01/27 05:56:07;;;;;;;;;;;1.70;99.90;;;;;;5036044;28;20048;-61
2024/01/27 05:58:34;;;;;;;;;;;1.70;99.90;;;;;;5033666;28;19955;-65
2024/01/27 06:01:01;;;;;;;;;;;1.70;99.90;;;;;;5030992;28;19933;-60
2024/01/27 06:03:27;;;;;;;;;;;1.70;99.90;;;;;;5035263;28;20025;-68
2024/01/27 06:05:54;;;;;;;;;;;1.70;99.90;;;;;;5034847;28;19975;-59
2024/01/27 06:08:21;;;;;;;;;;;1.70;99.90;;;;;;5038901;28;19935;-59
2024/01/27 06:10:48;;;;;;;;;;;1.70;99.90;;;;;;5032527;28;19929;-61
2024/01/27 06:13:16;;;;;;;;;;;1.70;99.90;;;;;;5033129;28;20421;-67
2024/01/27 06:15:42;;;;;;;;;;;1.70;99.90;;;;;;5028947;28;19983;-63
2024/01/27 06:18:09;;;;;;;;;;;1.70;99.90;;;;;;5034404;28;19933;-65
2024/01/27 06:20:36;;;;;;;;;;;1.70;99.90;;;;;;5029641;28;21289;-62
2024/01/27 06:23:03;;;;;;;;;;;1.60;99.90;;;;;;5029327;28;20019;-58
2024/01/27 06:25:30;;;;;;;;;;;1.70;99.90;;;;;;5029457;28;20799;-59
2024/01/27 06:27:57;;;;;;;;;;;1.60;99.90;;;;;;5033305;28;19997;-64
2024/01/27 06:30:24;;;;;;;;;;;1.60;99.90;;;;;;5028706;28;20484;-59
2024/01/27 06:32:51;;;;;;;;;;;1.60;99.90;;;;;;5034894;28;20275;-66
2024/01/27 06:35:18;;;;;;;;;;;1.60;99.90;;;;;;5029234;28;19925;-64
2024/01/27 06:37:45;;;;;;;;;;;1.60;99.90;;;;;;5034467;28;19932;-61
2024/01/27 06:40:12;;;;;;;;;;;1.60;99.90;;;;;;5030433;28;19968;-67
2024/01/27 06:42:39;;;;;;;;;;;1.60;99.90;;;;;;5035329;28;19924;-61
2024/01/27 06:45:06;;;;;;;;;;;1.60;99.90;;;;;;5033067;28;19936;-60
2024/01/27 06:47:33;;;;;;;;;;;1.60;99.90;;;;;;5028318;28;19936;-61
2024/01/27 06:49:59;;;;;;;;;;;1.60;99.90;;;;;;5028849;28;19935;-62
2024/01/27 06:52:26;;;;;;;;;;;1.60;99.90;;;;;;5032666;28;19933;-59
2024/01/27 06:54:53;;;;;;;;;;;1.60;99.90;;;;;;5029813;28;19972;-60
2024/01/27 06:57:20;;;;;;;;;;;1.60;99.90;;;;;;5031513;28;20150;-62
2024/01/27 06:59:52;;;;;;;;;;;1.60;99.90;;;;;;5028119;28;20579;-66
2024/01/27 07:02:31;;;;;;;;;;;1.60;99.90;;;;;;5027628;28;19932;-60
2024/01/27 07:04:58;;;;;;;;;;;1.60;99.90;;;;;;5033584;28;19951;-60
2024/01/27 07:07:25;;;;;;;;;;;1.50;99.90;;;;;;5028643;28;20367;-60
2024/01/27 07:09:52;;;;;;;;;;;1.50;99.90;;;;;;5024984;28;20361;-61
2024/01/27 07:12:19;;;;;;;;;;;1.50;99.90;;;;;;5032535;28;19929;-66
2024/01/27 07:14:46;;;;;;;;;;;1.50;99.90;;;;;;5030425;28;19935;-64
2024/01/27 07:17:13;;;;;;;;;;;1.40;99.90;;;;;;5028280;28;19929;-64
2024/01/27 07:19:40;;;;;;;;;;;1.40;99.90;;;;;;5033869;28;20367;-59
2024/01/27 07:22:07;;;;;;;;;;;1.30;99.90;;;;;;5027047;28;20023;-64
2024/01/27 07:24:33;;;;;;;;;;;1.40;99.90;;;;;;5025641;28;19997;-66
2024/01/27 07:27:01;;;;;;;;;;;1.30;99.90;;;;;;5030518;28;19929;-60
2024/01/27 07:29:28;;;;;;;;;;;1.30;99.90;;;;;;5029107;28;19925;-66
2024/01/27 07:31:54;;;;;;;;;;;1.30;99.90;;;;;;5027834;28;20335;-61
2024/01/27 07:34:22;;;;;;;;;;;1.30;99.90;;;;;;5029654;28;19939;-63
2024/01/27 07:36:49;;;;;;;;;;;1.30;99.90;;;;;;5033010;28;19975;-59
2024/01/27 07:39:16;;;;;;;;;;;1.30;99.90;;;;;;5038158;28;20012;-62
2024/01/27 07:41:43;;;;;;;;;;;1.30;99.90;;;;;;5036498;28;19929;-63
2024/01/27 07:44:10;;;;;;;;;;;1.30;99.90;;;;;;5036790;28;19925;-61
2024/01/27 07:46:38;;;;;;;;;;;1.20;99.90;;;;;;5032984;28;19929;-64
2024/01/27 07:49:06;;;;;;;;;;;1.30;99.90;;;;;;5044231;28;19990;-59
2024/01/27 07:51:33;;;;;;;;;;;1.30;99.90;;;;;;5033947;28;19925;-62
2024/01/27 07:54:00;;;;;;;;;;;1.30;99.90;;;;;;5033744;28;19936;-64
2024/01/27 07:56:27;;;;;;;;;;;1.20;99.90;;;;;;5034865;28;19935;-61
2024/01/27 07:58:54;;;;;;;;;;;1.30;99.90;;;;;;5040339;28;20294;-66
2024/01/27 08:01:21;;;;;;;;;;;1.30;99.90;;;;;;5031607;28;19952;-69
2024/01/27 08:03:47;;;;;;;;;;;1.30;99.90;;;;;;5032678;28;19929;-65
2024/01/27 08:06:16;;;;;;;;;;;1.30;99.90;;;;;;5029697;28;19936;-64
2024/01/27 08:08:44;;;;;;;;;;;1.30;99.90;;;;;;5028058;28;19931;-66
2024/01/27 08:11:11;;;;;;;;;;;1.30;99.90;;;;;;5033801;28;19929;-65
2024/01/27 08:13:38;;;;;;;;;;;1.30;99.90;;;;;;5032431;28;19991;-59
2024/01/27 08:16:05;;;;;;;;;;;1.30;99.90;;;;;;5030330;28;19979;-63
2024/01/27 08:18:32;;;;;;;;;;;1.30;99.90;;;;;;5029672;28;19952;-64
2024/01/27 08:20:59;;;;;;;;;;;1.30;99.90;;;;;;5035851;28;19940;-62
2024/01/27 08:23:26;;;;;;;;;;;1.30;99.90;;;;;;5032490;28;19925;-60
2024/01/27 08:25:52;;;;;;;;;;;1.30;99.90;;;;;;5032204;28;20532;-60
2024/01/27 08:28:19;;;;;;;;;;;1.30;99.90;;;;;;5035752;28;20412;-63
2024/01/27 08:30:46;;;;;;;;;;;1.30;99.90;;;;;;5031746;28;20586;-62
2024/01/27 08:33:13;;;;;;;;;;;1.30;99.90;;;;;;5029335;28;19948;-61
2024/01/27 08:35:40;;;;;;;;;;;1.30;99.90;;;;;;5031996;28;19925;-62
2024/01/27 08:38:09;;;;;;;;;;;1.30;99.90;;;;;;5033492;28;19925;-69
2024/01/27 08:40:35;;;;;;;;;;;1.30;99.90;;;;;;5033743;28;19971;-64
2024/01/27 08:43:02;;;;;;;;;;;1.30;99.90;;;;;;5033890;28;20332;-62
2024/01/27 08:45:29;;;;;;;;;;;1.30;99.90;;;;;;5064132;28;19936;-62
2024/01/27 08:47:56;;;;;;;;;;;1.30;99.90;;;;;;5034895;28;19929;-61
2024/01/27 08:50:23;;;;;;;;;;;1.30;99.90;;;;;;5034121;28;20294;-59
2024/01/27 08:52:50;;;;;;;;;;;1.20;99.90;;;;;;5031745;28;20078;-60
2024/01/27 08:55:18;;;;;;;;;;;1.20;99.90;;;;;;5031128;28;20055;-63
2024/01/27 08:57:48;;;;;;;;;;;1.20;99.90;;;;;;5030543;28;19936;-61
2024/01/27 09:00:16;;;;;;;;;;;1.20;99.90;;;;;;5030135;28;19933;-63
2024/01/27 09:02:43;;;;;;;;;;;1.20;99.90;;;;;;5035303;28;19970;-60
2024/01/27 09:05:10;;;;;;;;;;;1.20;99.90;;;;;;5031840;28;20039;-59
2024/01/27 09:07:37;;;;;;;;;;;1.20;99.90;;;;;;5038693;28;19929;-62
2024/01/27 09:10:04;;;;;;;;;;;1.20;99.90;;;;;;5032483;28;19960;-61
2024/01/27 09:12:31;;;;;;;;;;;1.10;99.90;;;;;;5033299;28;20346;-60
2024/01/27 09:14:58;;;;;;;;;;;1.10;99.90;;;;;;5028317;28;19936;-62
2024/01/27 09:17:25;;;;;;;;;;;1.10;99.90;;;;;;5049786;28;20023;-68
2024/01/27 09:19:52;;;;;;;;;;;1.10;99.90;;;;;;5034133;28;19972;-62
2024/01/27 09:22:19;;;;;;;;;;;1.10;99.90;;;;;;5029713;28;19925;-60
2024/01/27 09:24:46;;;;;;;;;;;1.20;99.90;;;;;;5026005;28;20000;-63
2024/01/27 09:27:13;;;;;;;;;;;1.20;99.90;;;;;;5029684;28;19940;-65
2024/01/27 09:29:40;;;;;;;;;;;1.20;99.90;;;;;;5027164;28;19925;-66
2024/01/27 09:32:07;;;;;;;;;;;1.30;99.90;;;;;;5033905;28;19929;-62
2024/01/27 09:34:33;;;;;;;;;;;1.30;99.90;;;;;;5031818;28;19969;-61
2024/01/27 09:37:01;;;;;;;;;;;1.30;99.90;;;;;;5028957;28;19945;-61
2024/01/27 09:39:28;;;;;;;;;;;1.30;99.90;;;;;;5037005;28;19968;-62
2024/01/27 09:41:58;;;;;;;;;;;1.40;99.90;;;;;;5032711;28;19929;-59
2024/01/27 09:44:25;;;;;;;;;;;1.40;99.90;;;;;;5062193;28;19932;-67
2024/01/27 09:46:53;;;;;;;;;;;1.40;99.90;;;;;;5031271;28;19987;-60
2024/01/27 09:49:19;;;;;;;;;;;1.40;99.90;;;;;;5034588;28;20022;-62
2024/01/27 09:51:47;;;;;;;;;;;1.50;99.90;;;;;;5028952;28;20024;-66
2024/01/27 09:54:14;;;;;;;;;;;1.50;99.90;;;;;;5029518;28;19971;-68
2024/01/27 09:56:45;;;;;;;;;;;1.50;99.90;;;;;;5029364;28;19929;-61
2024/01/27 09:59:15;;;;;;;;;;;1.50;99.90;;;;;;5029291;28;19929;-63
2024/01/27 10:01:42;;;;;;;;;;;1.50;99.90;;;;;;5036675;28;19929;-64
2024/01/27 10:04:09;;;;;;;;;;;1.50;99.90;;;;;;5032312;28;20345;-63
2024/01/27 10:06:36;;;;;;;;;;;1.50;99.90;;;;;;5036075;28;19960;-61
2024/01/27 10:09:03;;;;;;;;;;;1.50;99.90;;;;;;5032118;28;19933;-59
2024/01/27 10:11:31;;;;;;;;;;;1.60;99.90;;;;;;5032081;28;20703;-63
2024/01/27 10:13:59;;;;;;;;;;;1.60;99.90;;;;;;5034191;28;19964;-59
2024/01/27 10:16:27;;;;;;;;;;;1.60;99.90;;;;;;5034581;28;19929;-60
2024/01/27 10:19:01;;;;;;;;;;;1.60;99.90;;;;;;5032559;28;19929;-59
2024/01/27 10:21:28;;;;;;;;;;;1.60;99.90;;;;;;5027167;28;20039;-61
2024/01/27 10:23:55;;;;;;;;;;;1.60;99.90;;;;;;5028294;28;19958;-60
2024/01/27 10:26:22;;;;;;;;;;;1.60;99.90;;;;;;5032692;28;19941;-60
2024/01/27 10:28:52;;;;;;;;;;;1.60;99.90;;;;;;5029518;28;20055;-59
2024/01/27 10:31:23;;;;;;;;;;;1.60;99.90;;;;;;5026726;28;20303;-61
2024/01/27 10:33:53;;;;;;;;;;;1.60;99.90;;;;;;5028229;28;20024;-61
2024/01/27 10:36:20;;;;;;;;;;;1.70;99.90;;;;;;5030655;28;19961;-60
2024/01/27 10:38:47;;;;;;;;;;;1.70;99.90;;;;;;5044197;28;20295;-61
2024/01/27 10:41:25;;;;;;;;;;;1.70;99.90;;;;;;5030028;28;20092;-68
2024/01/27 10:43:52;;;;;;;;;;;1.70;99.90;;;;;;5030535;28;19983;-62
2024/01/27 10:46:23;;;;;;;;;;;1.60;99.90;;;;;;5034496;28;20017;-59
2024/01/27 10:48:53;;;;;;;;;;;1.70;99.90;;;;;;5032920;28;19925;-59
2024/01/27 10:51:31;;;;;;;;;;;1.70;99.90;;;;;;5027913;28;19929;-59
2024/01/27 10:54:01;;;;;;;;;;;1.70;99.90;;;;;;5027059;28;20016;-64
2024/01/27 10:56:32;;;;;;;;;;;1.70;99.90;;;;;;5031139;28;19960;-59
2024/01/27 10:58:59;;;;;;;;;;;1.70;99.90;;;;;;5029918;28;20566;-60
2024/01/27 11:01:27;;;;;;;;;;;1.80;99.90;;;;;;5031335;28;20036;-60
2024/01/27 11:03:55;;;;;;;;;;;1.80;99.90;;;;;;5032276;28;19983;-63
2024/01/27 11:06:22;;;;;;;;;;;1.80;99.90;;;;;;5029788;28;20055;-65
2024/01/27 11:08:50;;;;;;;;;;;1.80;99.90;;;;;;5025843;28;19933;-60
2024/01/27 11:11:18;;;;;;;;;;;1.80;99.90;;;;;;5033780;28;19956;-61
2024/01/27 11:13:47;;;;;;;;;;;1.90;99.90;;;;;;5034086;28;19929;-61
2024/01/27 11:16:18;;;;;;;;;;;1.90;99.90;;;;;;5030004;28;20306;-64
2024/01/27 11:18:45;;;;;;;;;;;1.90;99.90;;;;;;5033862;28;20579;-60
2024/01/27 11:21:14;;;;;;;;;;;2.00;99.90;;;;;;5038144;28;19947;-60
2024/01/27 11:23:41;;;;;;;;;;;2.00;99.90;;;;;;5065093;28;20020;-62
2024/01/27 11:26:09;;;;;;;;;;;2.00;99.90;;;;;;5034147;28;19931;-61
2024/01/27 11:28:36;;;;;;;;;;;2.00;99.90;;;;;;5031084;28;20016;-61
2024/01/27 11:31:04;;;;;;;;;;;2.00;99.90;;;;;;5038622;28;19933;-61
2024/01/27 11:33:30;;;;;;;;;;;2.10;99.90;;;;;;5034120;28;20020;-59
2024/01/27 11:36:04;;;;;;;;;;;2.10;99.90;;;;;;5034003;28;20781;-59
2024/01/27 11:38:32;;;;;;;;;;;2.10;99.90;;;;;;5030844;28;19936;-62
2024/01/27 11:41:01;;;;;;;;;;;2.10;99.90;;;;;;5039744;28;19928;-60
2024/01/27 11:43:28;;;;;;;;;;;2.10;99.90;;;;;;5032691;28;20475;-59
2024/01/27 11:45:58;;;;;;;;;;;2.10;99.90;;;;;;5037033;28;19997;-59
2024/01/27 11:48:25;;;;;;;;;;;2.10;99.90;;;;;;5036181;28;19933;-68
2024/01/27 11:51:05;;;;;;;;;;;2.10;99.90;;;;;;5035224;28;19932;-61
2024/01/27 11:53:33;;;;;;;;;;;2.10;99.90;;;;;;5036748;28;19936;-64
2024/01/27 11:56:01;;;;;;;;;;;2.10;99.90;;;;;;5033250;28;19970;-62
2024/01/27 11:58:29;;;;;;;;;;;2.10;99.90;;;;;;5032119;28;20020;-60
2024/01/27 12:00:58;;;;;;;;;;;2.20;99.90;;;;;;5030020;28;19925;-61
2024/01/27 12:03:25;;;;;;;;;;;2.20;99.90;;;;;;5032156;28;19929;-61
2024/01/27 12:05:52;;;;;;;;;;;2.20;99.90;;;;;;5032299;28;19932;-63
2024/01/27 12:08:19;;;;;;;;;;;2.30;99.90;;;;;;5030695;28;20424;-64
2024/01/27 12:10:45;;;;;;;;;;;2.30;99.90;;;;;;5037368;28;20330;-60
2024/01/27 12:13:12;;;;;;;;;;;2.30;99.90;;;;;;5041942;28;19990;-61
2024/01/27 12:15:39;;;;;;;;;;;2.40;99.90;;;;;;5034787;28;19933;-61
2024/01/27 12:18:06;;;;;;;;;;;2.40;99.90;;;;;;5046413;28;19929;-58
2024/01/27 12:20:33;;;;;;;;;;;2.40;99.90;;;;;;5031843;28;19925;-61
2024/01/27 12:23:07;;;;;;;;;;;2.40;99.90;;;;;;5032592;28;19991;-60
2024/01/27 12:25:34;;;;;;;;;;;2.40;99.90;;;;;;5028077;28;20727;-64
2024/01/27 12:28:04;;;;;;;;;;;2.40;99.90;;;;;;5033712;28;19932;-62
2024/01/27 12:30:34;;;;;;;;;;;2.40;99.90;;;;;;5030174;28;19929;-63
2024/01/27 12:33:01;;;;;;;;;;;2.40;99.90;;;;;;5034207;28;20680;-62
2024/01/27 12:35:29;;;;;;;;;;;2.40;99.90;;;;;;5036254;28;19929;-61
2024/01/27 12:37:59;;;;;;;;;;;2.40;99.90;;;;;;5042109;28;20338;-59
2024/01/27 12:40:26;;;;;;;;;;;2.40;99.90;;;;;;5034778;28;20011;-62
2024/01/27 12:42:53;;;;;;;;;;;2.40;99.90;;;;;;5034834;28;19979;-65
2024/01/27 12:45:20;;;;;;;;;;;2.40;99.90;;;;;;5029274;28;19932;-59
2024/01/27 12:47:47;;;;;;;;;;;2.50;99.90;;;;;;5031953;28;19929;-60
2024/01/27 12:50:14;;;;;;;;;;;2.50;99.90;;;;;;5035120;28;20667;-63
2024/01/27 12:52:42;;;;;;;;;;;2.40;99.90;;;;;;5030146;28;19948;-59
2024/01/27 12:55:09;;;;;;;;;;;2.40;99.90;;;;;;5031815;28;20624;-63
2024/01/27 12:57:36;;;;;;;;;;;2.40;99.90;;;;;;5032858;28;19948;-60
2024/01/27 13:00:09;;;;;;;;;;;2.40;99.90;;;;;;5037085;28;19929;-63
2024/01/27 13:02:37;;;;;;;;;;;2.40;99.90;;;;;;5032666;28;20591;-60
2024/01/27 13:05:04;;;;;;;;;;;2.40;99.90;;;;;;5031694;28;19933;-60
2024/01/27 13:07:31;;;;;;;;;;;2.30;99.90;;;;;;5033277;28;20276;-59
2024/01/27 13:09:57;;;;;;;;;;;2.30;99.90;;;;;;5030407;28;19952;-60
2024/01/27 13:12:24;;;;;;;;;;;2.30;99.90;;;;;;5038009;28;19936;-62
2024/01/27 13:14:51;;;;;;;;;;;2.30;99.90;;;;;;5030437;28;19932;-64
2024/01/27 13:17:19;;;;;;;;;;;2.30;99.90;;;;;;5031387;28;19932;-61
2024/01/27 13:19:46;;;;;;;;;;;2.30;99.90;;;;;;5036996;28;19972;-61
2024/01/27 13:22:13;;;;;;;;;;;2.30;99.90;;;;;;5031272;28;19940;-63
2024/01/27 13:24:40;;;;;;;;;;;2.30;99.90;;;;;;5033675;28;20036;-63
2024/01/27 13:27:08;;;;;;;;;;;2.30;99.90;;;;;;5034735;28;19933;-61
2024/01/27 13:29:35;;;;;;;;;;;2.20;99.90;;;;;;5032242;28;19987;-60
2024/01/27 13:32:02;;;;;;;;;;;2.30;99.90;;;;;;5029282;28;19960;-63
2024/01/27 13:34:30;;;;;;;;;;;2.20;99.90;;;;;;5035193;28;20365;-61
2024/01/27 13:36:58;;;;;;;;;;;2.20;99.90;;;;;;5035356;28;19933;-60
2024/01/27 13:39:25;;;;;;;;;;;2.20;99.90;;;;;;5030495;28;19984;-66
2024/01/27 13:41:52;;;;;;;;;;;2.20;99.90;;;;;;5032479;28;19970;-60
2024/01/27 13:44:19;;;;;;;;;;;2.10;99.90;;;;;;5034469;28;20026;-62
2024/01/27 13:46:45;;;;;;;;;;;2.10;99.90;;;;;;5031157;28;19924;-60
2024/01/27 13:49:12;;;;;;;;;;;2.10;99.90;;;;;;5031456;28;19960;-64
2024/01/27 13:51:39;;;;;;;;;;;2.10;99.90;;;;;;5031332;28;19929;-60
2024/01/27 13:54:09;;;;;;;;;;;2.10;99.90;;;;;;5028671;28;19925;-59
2024/01/27 13:56:36;;;;;;;;;;;2.10;99.90;;;;;;5038179;28;19932;-60
2024/01/27 13:59:04;;;;;;;;;;;2.10;99.90;;;;;;5031149;28;19925;-63
2024/01/27 14:01:31;;;;;;;;;;;2.10;99.90;;;;;;5028570;28;19936;-62
2024/01/27 14:03:58;;;;;;;;;;;2.00;99.90;;;;;;5028297;28;20442;-63
2024/01/27 14:06:25;;;;;;;;;;;2.00;99.90;;;;;;5032133;28;19933;-60
2024/01/27 14:08:52;;;;;;;;;;;2.00;99.90;;;;;;5026373;28;20018;-60
2024/01/27 14:11:21;;;;;;;;;;;2.00;99.90;;;;;;5034076;28;19933;-64
2024/01/27 14:13:48;;;;;;;;;;;2.00;99.90;;;;;;5030124;28;20310;-59
2024/01/27 14:16:15;;;;;;;;;;;2.00;99.90;;;;;;5030984;28;20036;-61
2024/01/27 14:18:44;;;;;;;;;;;2.00;99.90;;;;;;5031619;28;19957;-67
2024/01/27 14:21:11;;;;;;;;;;;2.00;99.90;;;;;;5032408;28;19932;-62
2024/01/27 14:23:40;;;;;;;;;;;1.90;99.90;;;;;;5029733;28;20977;-61
2024/01/27 14:26:14;;;;;;;;;;;1.90;99.90;;;;;;5030014;28;20048;-66
2024/01/27 14:28:41;;;;;;;;;;;1.90;99.90;;;;;;5034049;28;19933;-61
2024/01/27 14:31:09;;;;;;;;;;;1.80;99.90;;;;;;5030880;28;19932;-58